sensor_id;sensor_type;location;lat;lon;timestamp;temperature;humidity
19880;DHT22;10102;50.828;4.416;2022-10-16T00:01:36;14.90;99.90
19880;DHT22;10102;50.828;4.416;2022-10-16T00:04:02;14.80;99.90
19880;DHT22;10102;50.828;4.416;2022-10-16T00:06:28;14.90;99.90
19880;DHT22;10102;50.828;4.416;2022-10-16T00:08:54;14.90;99.90
19880;DHT22;10102;50.828;4.416;2022-10-16T00:11:23;14.80;99.90
19880;DHT22;10102;50.828;4.416;2022-10-16T00:13:51;15.00;99.90
19880;DHT22;10102;50.828;4.416;2022-10-16T00:16:18;15.00;99.90
19880;DHT22;10102;50.828;4.416;2022-10-16T00:18:43;16.10;99.90
19880;DHT22;10102;50.828;4.416;2022-10-16T00:21:15;15.00;99.90
19880;DHT22;10102;50.828;4.416;2022-10-16T00:23:42;15.10;99.90
19880;DHT22;10102;50.828;4.416;2022-10-16T00:26:11;15.00;99.90
19880;DHT22;10102;50.828;4.416;2022-10-16T00:28:37;15.00;99.90
19880;DHT22;10102;50.828;4.416;2022-10-16T00:31:07;14.50;99.90
19880;DHT22;10102;50.828;4.416;2022-10-16T00:33:34;14.80;99.90
19880;DHT22;10102;50.828;4.416;2022-10-16T00:36:02;15.00;99.90
19880;DHT22;10102;50.828;4.416;2022-10-16T00:38:27;14.80;99.90
19880;DHT22;10102;50.828;4.416;2022-10-16T00:40:53;14.80;99.90
19880;DHT22;10102;50.828;4.416;2022-10-16T00:43:39;14.80;99.90
19880;DHT22;10102;50.828;4.416;2022-10-16T00:46:21;14.70;99.90
19880;DHT22;10102;50.828;4.416;2022-10-16T00:48:57;14.70;99.90
19880;DHT22;10102;50.828;4.416;2022-10-16T00:51:30;14.60;99.90
19880;DHT22;10102;50.828;4.416;2022-10-16T00:53:57;14.70;99.90
19880;DHT22;10102;50.828;4.416;2022-10-16T00:56:23;14.80;99.90
19880;DHT22;10102;50.828;4.416;2022-10-16T00:58:48;14.50;99.90
19880;DHT22;10102;50.828;4.416;2022-10-16T01:01:15;14.50;99.90
19880;DHT22;10102;50.828;4.416;2022-10-16T01:03:41;15.30;99.90
19880;DHT22;10102;50.828;4.416;2022-10-16T01:08:49;14.50;99.90
19880;DHT22;10102;50.828;4.416;2022-10-16T01:11:32;14.30;99.90
19880;DHT22;10102;50.828;4.416;2022-10-16T01:14:02;14.30;99.90
19880;DHT22;10102;50.828;4.416;2022-10-16T01:20:20;14.40;99.90
19880;DHT22;10102;50.828;4.416;2022-10-16T01:23:01;14.40;99.90
19880;DHT22;10102;50.828;4.416;2022-10-16T01:29:03;14.50;99.90
19880;DHT22;10102;50.828;4.416;2022-10-16T01:31:27;14.30;99.90
19880;DHT22;10102;50.828;4.416;2022-10-16T01:34:15;14.40;99.90
19880;DHT22;10102;50.828;4.416;2022-10-16T01:36:49;14.40;99.90
19880;DHT22;10102;50.828;4.416;2022-10-16T01:39:19;14.40;99.90
19880;DHT22;10102;50.828;4.416;2022-10-16T01:41:57;14.50;99.90
19880;DHT22;10102;50.828;4.416;2022-10-16T01:44:29;14.40;99.90
19880;DHT22;10102;50.828;4.416;2022-10-16T01:46:57;14.40;99.90
19880;DHT22;10102;50.828;4.416;2022-10-16T01:49:24;14.40;99.90
19880;DHT22;10102;50.828;4.416;2022-10-16T01:51:55;14.50;99.90
19880;DHT22;10102;50.828;4.416;2022-10-16T01:54:23;14.50;99.90
19880;DHT22;10102;50.828;4.416;2022-10-16T01:56:51;14.50;99.90
19880;DHT22;10102;50.828;4.416;2022-10-16T01:59:19;14.40;99.90
19880;DHT22;10102;50.828;4.416;2022-10-16T02:01:50;14.30;99.90
19880;DHT22;10102;50.828;4.416;2022-10-16T02:04:32;14.40;99.90
19880;DHT22;10102;50.828;4.416;2022-10-16T02:06:58;14.40;99.90
19880;DHT22;10102;50.828;4.416;2022-10-16T02:09:25;14.40;99.90
19880;DHT22;10102;50.828;4.416;2022-10-16T02:11:53;14.30;99.90
19880;DHT22;10102;50.828;4.416;2022-10-16T02:14:21;14.40;99.90
19880;DHT22;10102;50.828;4.416;2022-10-16T02:16:49;14.40;99.90
19880;DHT22;10102;50.828;4.416;2022-10-16T02:19:17;14.40;99.90
19880;DHT22;10102;50.828;4.416;2022-10-16T02:24:25;14.20;99.90
19880;DHT22;10102;50.828;4.416;2022-10-16T02:26:52;14.40;99.90
19880;DHT22;10102;50.828;4.416;2022-10-16T02:29:25;14.40;99.90
19880;DHT22;10102;50.828;4.416;2022-10-16T02:31:55;14.30;99.90
19880;DHT22;10102;50.828;4.416;2022-10-16T02:34:25;14.40;99.90
19880;DHT22;10102;50.828;4.416;2022-10-16T02:36:53;14.30;99.90
19880;DHT22;10102;50.828;4.416;2022-10-16T02:39:19;14.40;99.90
19880;DHT22;10102;50.828;4.416;2022-10-16T02:41:45;14.30;99.90
19880;DHT22;10102;50.828;4.416;2022-10-16T02:44:11;14.30;99.90
19880;DHT22;10102;50.828;4.416;2022-10-16T02:46:36;14.30;99.90
19880;DHT22;10102;50.828;4.416;2022-10-16T02:49:02;14.40;99.90
19880;DHT22;10102;50.828;4.416;2022-10-16T02:51:28;14.30;99.90
19880;DHT22;10102;50.828;4.416;2022-10-16T02:53:54;14.20;99.90
19880;DHT22;10102;50.828;4.416;2022-10-16T02:56:20;14.20;99.90
19880;DHT22;10102;50.828;4.416;2022-10-16T03:01:11;14.40;99.90
19880;DHT22;10102;50.828;4.416;2022-10-16T03:03:38;14.50;99.90
19880;DHT22;10102;50.828;4.416;2022-10-16T03:06:04;14.40;99.90
19880;DHT22;10102;50.828;4.416;2022-10-16T03:08:29;14.10;99.90
19880;DHT22;10102;50.828;4.416;2022-10-16T03:10:55;14.40;99.90
19880;DHT22;10102;50.828;4.416;2022-10-16T03:13:21;14.30;99.90
19880;DHT22;10102;50.828;4.416;2022-10-16T03:15:47;14.40;99.90
19880;DHT22;10102;50.828;4.416;2022-10-16T03:18:12;14.50;99.90
19880;DHT22;10102;50.828;4.416;2022-10-16T03:20:38;14.40;99.90
19880;DHT22;10102;50.828;4.416;2022-10-16T03:23:04;14.40;99.90
19880;DHT22;10102;50.828;4.416;2022-10-16T03:25:29;14.40;99.90
19880;DHT22;10102;50.828;4.416;2022-10-16T03:27:55;14.20;99.90
19880;DHT22;10102;50.828;4.416;2022-10-16T03:30:21;14.30;99.90
19880;DHT22;10102;50.828;4.416;2022-10-16T03:32:46;14.30;99.90
19880;DHT22;10102;50.828;4.416;2022-10-16T03:35:12;14.30;99.90
19880;DHT22;10102;50.828;4.416;2022-10-16T03:37:38;14.20;99.90
19880;DHT22;10102;50.828;4.416;2022-10-16T03:40:04;14.20;99.90
19880;DHT22;10102;50.828;4.416;2022-10-16T03:42:30;14.30;99.90
19880;DHT22;10102;50.828;4.416;2022-10-16T03:44:56;14.30;99.90
19880;DHT22;10102;50.828;4.416;2022-10-16T03:47:22;14.30;99.90
19880;DHT22;10102;50.828;4.416;2022-10-16T03:49:49;14.40;99.90
19880;DHT22;10102;50.828;4.416;2022-10-16T03:52:15;14.60;99.90
19880;DHT22;10102;50.828;4.416;2022-10-16T03:54:41;14.10;99.90
19880;DHT22;10102;50.828;4.416;2022-10-16T03:57:07;14.40;99.90
19880;DHT22;10102;50.828;4.416;2022-10-16T04:01:58;14.30;99.90
19880;DHT22;10102;50.828;4.416;2022-10-16T04:04:24;14.50;99.90
19880;DHT22;10102;50.828;4.416;2022-10-16T04:06:50;14.30;99.90
19880;DHT22;10102;50.828;4.416;2022-10-16T04:09:16;14.50;99.90
19880;DHT22;10102;50.828;4.416;2022-10-16T04:11:42;14.40;99.90
19880;DHT22;10102;50.828;4.416;2022-10-16T04:14:08;14.40;99.90
19880;DHT22;10102;50.828;4.416;2022-10-16T04:16:33;14.50;99.90
19880;DHT22;10102;50.828;4.416;2022-10-16T04:18:59;14.60;99.90
19880;DHT22;10102;50.828;4.416;2022-10-16T04:21:24;14.50;99.90
19880;DHT22;10102;50.828;4.416;2022-10-16T04:23:50;14.40;99.90
19880;DHT22;10102;50.828;4.416;2022-10-16T04:26:16;14.30;99.90
19880;DHT22;10102;50.828;4.416;2022-10-16T04:28:41;14.20;99.90
19880;DHT22;10102;50.828;4.416;2022-10-16T04:31:07;14.30;99.90
19880;DHT22;10102;50.828;4.416;2022-10-16T04:33:33;14.30;99.90
19880;DHT22;10102;50.828;4.416;2022-10-16T04:36:00;14.30;99.90
19880;DHT22;10102;50.828;4.416;2022-10-16T04:38:26;14.30;99.90
19880;DHT22;10102;50.828;4.416;2022-10-16T04:40:52;14.30;99.90
19880;DHT22;10102;50.828;4.416;2022-10-16T04:43:18;14.50;99.90
19880;DHT22;10102;50.828;4.416;2022-10-16T04:45:44;14.20;99.90
19880;DHT22;10102;50.828;4.416;2022-10-16T04:48:09;14.10;99.90
19880;DHT22;10102;50.828;4.416;2022-10-16T04:50:35;14.80;99.90
19880;DHT22;10102;50.828;4.416;2022-10-16T04:53:01;14.40;99.90
19880;DHT22;10102;50.828;4.416;2022-10-16T04:55:26;14.30;99.90
19880;DHT22;10102;50.828;4.416;2022-10-16T04:57:52;14.20;99.90
19880;DHT22;10102;50.828;4.416;2022-10-16T05:00:18;14.20;99.90
19880;DHT22;10102;50.828;4.416;2022-10-16T05:02:44;14.10;99.90
19880;DHT22;10102;50.828;4.416;2022-10-16T05:07:35;14.10;99.90
19880;DHT22;10102;50.828;4.416;2022-10-16T05:10:01;14.40;99.90
19880;DHT22;10102;50.828;4.416;2022-10-16T05:12:27;14.20;99.90
19880;DHT22;10102;50.828;4.416;2022-10-16T05:14:53;14.10;99.90
19880;DHT22;10102;50.828;4.416;2022-10-16T05:17:26;14.10;99.90
19880;DHT22;10102;50.828;4.416;2022-10-16T05:19:52;14.10;99.90
19880;DHT22;10102;50.828;4.416;2022-10-16T05:22:17;14.10;99.90
19880;DHT22;10102;50.828;4.416;2022-10-16T05:24:43;14.20;99.90
19880;DHT22;10102;50.828;4.416;2022-10-16T05:27:10;14.20;99.90
19880;DHT22;10102;50.828;4.416;2022-10-16T05:29:36;14.20;99.90
19880;DHT22;10102;50.828;4.416;2022-10-16T05:32:02;14.10;99.90
19880;DHT22;10102;50.828;4.416;2022-10-16T05:34:28;14.10;99.90
19880;DHT22;10102;50.828;4.416;2022-10-16T05:36:53;14.10;99.90
19880;DHT22;10102;50.828;4.416;2022-10-16T05:39:19;14.00;99.90
19880;DHT22;10102;50.828;4.416;2022-10-16T05:41:45;14.10;99.90
19880;DHT22;10102;50.828;4.416;2022-10-16T05:44:10;14.10;99.90
19880;DHT22;10102;50.828;4.416;2022-10-16T05:46:36;14.00;99.90
19880;DHT22;10102;50.828;4.416;2022-10-16T05:49:02;14.00;99.90
19880;DHT22;10102;50.828;4.416;2022-10-16T05:51:28;14.00;99.90
19880;DHT22;10102;50.828;4.416;2022-10-16T05:53:53;14.00;99.90
19880;DHT22;10102;50.828;4.416;2022-10-16T05:56:19;14.00;99.90
19880;DHT22;10102;50.828;4.416;2022-10-16T05:58:45;13.90;99.90
19880;DHT22;10102;50.828;4.416;2022-10-16T06:01:13;13.80;99.90
19880;DHT22;10102;50.828;4.416;2022-10-16T06:03:39;13.80;99.90
19880;DHT22;10102;50.828;4.416;2022-10-16T06:06:25;13.70;99.90
19880;DHT22;10102;50.828;4.416;2022-10-16T06:08:52;13.80;99.90
19880;DHT22;10102;50.828;4.416;2022-10-16T06:11:25;13.70;99.90
19880;DHT22;10102;50.828;4.416;2022-10-16T06:13:52;13.80;99.90
19880;DHT22;10102;50.828;4.416;2022-10-16T06:16:18;13.70;99.90
19880;DHT22;10102;50.828;4.416;2022-10-16T06:18:44;14.10;99.90
19880;DHT22;10102;50.828;4.416;2022-10-16T06:21:12;13.90;99.90
19880;DHT22;10102;50.828;4.416;2022-10-16T06:23:39;13.80;99.90
19880;DHT22;10102;50.828;4.416;2022-10-16T06:26:14;13.80;99.90
19880;DHT22;10102;50.828;4.416;2022-10-16T06:28:40;13.90;99.90
19880;DHT22;10102;50.828;4.416;2022-10-16T06:31:07;14.00;99.90
19880;DHT22;10102;50.828;4.416;2022-10-16T06:33:33;14.00;99.90
19880;DHT22;10102;50.828;4.416;2022-10-16T06:36:08;14.00;99.90
19880;DHT22;10102;50.828;4.416;2022-10-16T06:38:34;14.00;99.90
19880;DHT22;10102;50.828;4.416;2022-10-16T06:41:01;14.10;99.90
19880;DHT22;10102;50.828;4.416;2022-10-16T06:43:29;14.00;99.90
19880;DHT22;10102;50.828;4.416;2022-10-16T06:45:59;14.00;99.90
19880;DHT22;10102;50.828;4.416;2022-10-16T06:48:25;14.10;99.90
19880;DHT22;10102;50.828;4.416;2022-10-16T06:51:06;14.20;99.90
19880;DHT22;10102;50.828;4.416;2022-10-16T06:53:35;14.40;99.90
19880;DHT22;10102;50.828;4.416;2022-10-16T06:56:12;14.70;99.90
19880;DHT22;10102;50.828;4.416;2022-10-16T06:58:39;14.10;99.90
19880;DHT22;10102;50.828;4.416;2022-10-16T07:01:05;14.40;99.90
19880;DHT22;10102;50.828;4.416;2022-10-16T07:03:31;14.40;99.90
19880;DHT22;10102;50.828;4.416;2022-10-16T07:05:57;14.40;99.90
19880;DHT22;10102;50.828;4.416;2022-10-16T07:08:22;14.50;99.90
19880;DHT22;10102;50.828;4.416;2022-10-16T07:10:48;14.50;99.90
19880;DHT22;10102;50.828;4.416;2022-10-16T07:13:14;14.60;99.90
19880;DHT22;10102;50.828;4.416;2022-10-16T07:15:40;14.50;99.90
19880;DHT22;10102;50.828;4.416;2022-10-16T07:18:06;14.50;99.90
19880;DHT22;10102;50.828;4.416;2022-10-16T07:20:32;14.50;99.90
19880;DHT22;10102;50.828;4.416;2022-10-16T07:22:58;14.60;99.90
19880;DHT22;10102;50.828;4.416;2022-10-16T07:25:24;14.60;99.90
19880;DHT22;10102;50.828;4.416;2022-10-16T07:27:49;14.80;99.90
19880;DHT22;10102;50.828;4.416;2022-10-16T07:30:15;14.60;99.90
19880;DHT22;10102;50.828;4.416;2022-10-16T07:32:41;14.60;99.90
19880;DHT22;10102;50.828;4.416;2022-10-16T07:35:07;14.70;99.90
19880;DHT22;10102;50.828;4.416;2022-10-16T07:39:59;14.70;99.90
19880;DHT22;10102;50.828;4.416;2022-10-16T07:42:24;14.70;99.90
19880;DHT22;10102;50.828;4.416;2022-10-16T07:44:50;14.40;99.90
19880;DHT22;10102;50.828;4.416;2022-10-16T07:47:16;14.70;99.90
19880;DHT22;10102;50.828;4.416;2022-10-16T07:49:41;14.80;99.90
19880;DHT22;10102;50.828;4.416;2022-10-16T07:52:07;14.90;99.90
19880;DHT22;10102;50.828;4.416;2022-10-16T07:54:33;14.90;99.90
19880;DHT22;10102;50.828;4.416;2022-10-16T07:56:58;15.00;99.90
19880;DHT22;10102;50.828;4.416;2022-10-16T07:59:24;15.00;99.90
19880;DHT22;10102;50.828;4.416;2022-10-16T08:01:50;15.00;99.90
19880;DHT22;10102;50.828;4.416;2022-10-16T08:04:15;15.10;99.90
19880;DHT22;10102;50.828;4.416;2022-10-16T08:06:41;14.90;99.90
19880;DHT22;10102;50.828;4.416;2022-10-16T08:09:08;15.10;99.90
19880;DHT22;10102;50.828;4.416;2022-10-16T08:11:34;15.20;99.90
19880;DHT22;10102;50.828;4.416;2022-10-16T08:13:59;15.20;99.90
19880;DHT22;10102;50.828;4.416;2022-10-16T08:18:51;15.20;99.90
19880;DHT22;10102;50.828;4.416;2022-10-16T08:21:20;15.20;99.90
19880;DHT22;10102;50.828;4.416;2022-10-16T08:23:46;15.20;99.90
19880;DHT22;10102;50.828;4.416;2022-10-16T08:26:12;15.20;99.90
19880;DHT22;10102;50.828;4.416;2022-10-16T08:28:38;15.80;99.90
19880;DHT22;10102;50.828;4.416;2022-10-16T08:31:15;15.40;99.90
19880;DHT22;10102;50.828;4.416;2022-10-16T08:33:43;15.50;99.90
19880;DHT22;10102;50.828;4.416;2022-10-16T08:36:10;15.60;99.90
19880;DHT22;10102;50.828;4.416;2022-10-16T08:38:36;15.20;99.90
19880;DHT22;10102;50.828;4.416;2022-10-16T08:49:26;15.40;99.90
19880;DHT22;10102;50.828;4.416;2022-10-16T08:51:53;15.50;99.90
19880;DHT22;10102;50.828;4.416;2022-10-16T08:54:36;15.90;99.90
19880;DHT22;10102;50.828;4.416;2022-10-16T08:57:20;15.90;99.90
19880;DHT22;10102;50.828;4.416;2022-10-16T08:59:46;16.20;99.90
19880;DHT22;10102;50.828;4.416;2022-10-16T09:02:26;16.10;99.90
19880;DHT22;10102;50.828;4.416;2022-10-16T09:10:46;16.10;99.90
19880;DHT22;10102;50.828;4.416;2022-10-16T09:16:22;16.20;99.90
19880;DHT22;10102;50.828;4.416;2022-10-16T09:21:48;16.40;99.90
19880;DHT22;10102;50.828;4.416;2022-10-16T09:24:19;16.40;99.90
19880;DHT22;10102;50.828;4.416;2022-10-16T09:26:47;16.40;99.90
19880;DHT22;10102;50.828;4.416;2022-10-16T09:29:14;16.40;99.90
19880;DHT22;10102;50.828;4.416;2022-10-16T09:31:41;16.40;99.90
19880;DHT22;10102;50.828;4.416;2022-10-16T09:34:36;16.50;99.90
19880;DHT22;10102;50.828;4.416;2022-10-16T09:37:08;17.10;99.90
19880;DHT22;10102;50.828;4.416;2022-10-16T09:39:49;17.30;99.90
19880;DHT22;10102;50.828;4.416;2022-10-16T09:42:33;17.40;99.90
19880;DHT22;10102;50.828;4.416;2022-10-16T09:45:01;18.20;99.90
19880;DHT22;10102;50.828;4.416;2022-10-16T09:47:28;17.90;99.90
19880;DHT22;10102;50.828;4.416;2022-10-16T09:52:29;18.30;99.90
19880;DHT22;10102;50.828;4.416;2022-10-16T09:55:00;19.10;99.90
19880;DHT22;10102;50.828;4.416;2022-10-16T09:57:26;18.90;99.90
19880;DHT22;10102;50.828;4.416;2022-10-16T09:59:57;18.90;99.90
19880;DHT22;10102;50.828;4.416;2022-10-16T10:02:35;19.40;99.90
19880;DHT22;10102;50.828;4.416;2022-10-16T10:05:04;19.60;99.90
19880;DHT22;10102;50.828;4.416;2022-10-16T10:07:33;19.30;99.90
19880;DHT22;10102;50.828;4.416;2022-10-16T10:10:03;19.70;99.90
19880;DHT22;10102;50.828;4.416;2022-10-16T10:12:31;20.30;99.90
19880;DHT22;10102;50.828;4.416;2022-10-16T10:15:03;20.70;99.90
19880;DHT22;10102;50.828;4.416;2022-10-16T10:17:29;21.20;99.90
19880;DHT22;10102;50.828;4.416;2022-10-16T10:30:27;23.20;99.90
19880;DHT22;10102;50.828;4.416;2022-10-16T10:35:42;21.90;99.90
19880;DHT22;10102;50.828;4.416;2022-10-16T10:38:35;22.00;99.90
19880;DHT22;10102;50.828;4.416;2022-10-16T10:45:59;26.20;99.90
19880;DHT22;10102;50.828;4.416;2022-10-16T10:57:21;27.90;99.90
19880;DHT22;10102;50.828;4.416;2022-10-16T11:07:41;28.60;99.90
19880;DHT22;10102;50.828;4.416;2022-10-16T11:10:16;27.10;99.90
19880;DHT22;10102;50.828;4.416;2022-10-16T11:12:52;27.70;99.90
19880;DHT22;10102;50.828;4.416;2022-10-16T11:15:32;29.30;99.90
19880;DHT22;10102;50.828;4.416;2022-10-16T11:20:47;32.90;99.90
19880;DHT22;10102;50.828;4.416;2022-10-16T11:23:37;34.90;96.10
19880;DHT22;10102;50.828;4.416;2022-10-16T11:26:12;34.90;93.20
19880;DHT22;10102;50.828;4.416;2022-10-16T11:28:51;35.40;92.60
19880;DHT22;10102;50.828;4.416;2022-10-16T11:33:54;35.20;90.90
19880;DHT22;10102;50.828;4.416;2022-10-16T11:36:25;35.80;90.60
19880;DHT22;10102;50.828;4.416;2022-10-16T11:49:32;34.90;88.60
19880;DHT22;10102;50.828;4.416;2022-10-16T11:55:01;30.50;92.70
19880;DHT22;10102;50.828;4.416;2022-10-16T11:57:36;28.40;94.80
19880;DHT22;10102;50.828;4.416;2022-10-16T12:00:20;27.50;97.50
19880;DHT22;10102;50.828;4.416;2022-10-16T12:06:01;26.20;99.90
19880;DHT22;10102;50.828;4.416;2022-10-16T12:08:30;26.10;99.90
19880;DHT22;10102;50.828;4.416;2022-10-16T12:11:08;26.00;99.90
19880;DHT22;10102;50.828;4.416;2022-10-16T12:13:35;25.60;99.90
19880;DHT22;10102;50.828;4.416;2022-10-16T12:18:46;25.90;99.90
19880;DHT22;10102;50.828;4.416;2022-10-16T12:21:13;24.80;99.90
19880;DHT22;10102;50.828;4.416;2022-10-16T12:23:51;24.70;99.90
19880;DHT22;10102;50.828;4.416;2022-10-16T12:26:43;24.00;99.90
19880;DHT22;10102;50.828;4.416;2022-10-16T12:31:46;23.70;99.90
19880;DHT22;10102;50.828;4.416;2022-10-16T12:36:48;25.20;99.90
19880;DHT22;10102;50.828;4.416;2022-10-16T12:39:24;25.20;99.90
19880;DHT22;10102;50.828;4.416;2022-10-16T12:42:05;25.10;99.90
19880;DHT22;10102;50.828;4.416;2022-10-16T12:44:35;24.60;99.90
19880;DHT22;10102;50.828;4.416;2022-10-16T12:47:02;24.60;99.90
19880;DHT22;10102;50.828;4.416;2022-10-16T12:51:54;24.10;99.90
19880;DHT22;10102;50.828;4.416;2022-10-16T12:54:36;23.80;99.90
19880;DHT22;10102;50.828;4.416;2022-10-16T13:20:04;22.90;99.90
19880;DHT22;10102;50.828;4.416;2022-10-16T13:28:08;22.30;99.90
19880;DHT22;10102;50.828;4.416;2022-10-16T13:33:10;22.50;99.90
19880;DHT22;10102;50.828;4.416;2022-10-16T13:35:37;22.60;99.90
19880;DHT22;10102;50.828;4.416;2022-10-16T13:40:54;22.90;99.90
19880;DHT22;10102;50.828;4.416;2022-10-16T13:46:17;22.30;99.90
19880;DHT22;10102;50.828;4.416;2022-10-16T13:48:43;22.50;99.90
19880;DHT22;10102;50.828;4.416;2022-10-16T13:51:17;22.00;99.90
19880;DHT22;10102;50.828;4.416;2022-10-16T13:53:44;22.20;99.90
19880;DHT22;10102;50.828;4.416;2022-10-16T13:56:13;22.10;99.90
19880;DHT22;10102;50.828;4.416;2022-10-16T13:58:39;21.80;99.90
19880;DHT22;10102;50.828;4.416;2022-10-16T14:01:25;22.10;99.90
19880;DHT22;10102;50.828;4.416;2022-10-16T14:03:52;22.40;99.90
19880;DHT22;10102;50.828;4.416;2022-10-16T14:06:20;22.20;99.90
19880;DHT22;10102;50.828;4.416;2022-10-16T14:08:55;21.90;99.90
19880;DHT22;10102;50.828;4.416;2022-10-16T14:11:23;21.80;99.90
19880;DHT22;10102;50.828;4.416;2022-10-16T14:13:50;21.60;99.90
19880;DHT22;10102;50.828;4.416;2022-10-16T14:16:25;21.50;99.90
19880;DHT22;10102;50.828;4.416;2022-10-16T14:19:04;21.50;99.90
19880;DHT22;10102;50.828;4.416;2022-10-16T14:21:35;21.30;99.90
19880;DHT22;10102;50.828;4.416;2022-10-16T14:24:13;21.90;99.90
19880;DHT22;10102;50.828;4.416;2022-10-16T14:26:43;21.60;99.90
19880;DHT22;10102;50.828;4.416;2022-10-16T14:29:19;21.70;99.90
19880;DHT22;10102;50.828;4.416;2022-10-16T14:31:59;22.00;99.90
19880;DHT22;10102;50.828;4.416;2022-10-16T14:39:49;22.30;99.90
19880;DHT22;10102;50.828;4.416;2022-10-16T14:42:17;22.00;99.90
19880;DHT22;10102;50.828;4.416;2022-10-16T14:44:45;22.30;99.90
19880;DHT22;10102;50.828;4.416;2022-10-16T14:47:17;22.30;99.90
19880;DHT22;10102;50.828;4.416;2022-10-16T14:49:47;22.50;99.90
19880;DHT22;10102;50.828;4.416;2022-10-16T14:52:14;22.50;99.90
19880;DHT22;10102;50.828;4.416;2022-10-16T14:54:40;22.60;99.90
19880;DHT22;10102;50.828;4.416;2022-10-16T14:57:05;22.50;99.90
19880;DHT22;10102;50.828;4.416;2022-10-16T14:59:42;22.50;99.90
19880;DHT22;10102;50.828;4.416;2022-10-16T15:04:55;22.20;99.90
19880;DHT22;10102;50.828;4.416;2022-10-16T15:07:21;22.30;99.90
19880;DHT22;10102;50.828;4.416;2022-10-16T15:09:47;22.30;99.90
19880;DHT22;10102;50.828;4.416;2022-10-16T15:12:12;22.20;99.90
19880;DHT22;10102;50.828;4.416;2022-10-16T15:14:38;22.20;99.90
19880;DHT22;10102;50.828;4.416;2022-10-16T15:17:04;22.10;99.90
19880;DHT22;10102;50.828;4.416;2022-10-16T15:19:30;22.00;99.90
19880;DHT22;10102;50.828;4.416;2022-10-16T15:21:56;22.20;99.90
19880;DHT22;10102;50.828;4.416;2022-10-16T15:24:22;22.00;99.90
19880;DHT22;10102;50.828;4.416;2022-10-16T15:26:47;22.00;99.90
19880;DHT22;10102;50.828;4.416;2022-10-16T15:29:14;21.70;99.90
19880;DHT22;10102;50.828;4.416;2022-10-16T15:31:40;21.80;99.90
19880;DHT22;10102;50.828;4.416;2022-10-16T15:34:10;21.60;99.90
19880;DHT22;10102;50.828;4.416;2022-10-16T15:36:38;21.50;99.90
19880;DHT22;10102;50.828;4.416;2022-10-16T15:39:05;21.50;99.90
19880;DHT22;10102;50.828;4.416;2022-10-16T15:41:31;21.20;99.90
19880;DHT22;10102;50.828;4.416;2022-10-16T15:43:57;21.20;99.90
19880;DHT22;10102;50.828;4.416;2022-10-16T15:46:24;21.00;99.90
19880;DHT22;10102;50.828;4.416;2022-10-16T15:48:50;20.90;99.90
19880;DHT22;10102;50.828;4.416;2022-10-16T15:51:17;20.90;99.90
19880;DHT22;10102;50.828;4.416;2022-10-16T15:53:43;20.60;99.90
19880;DHT22;10102;50.828;4.416;2022-10-16T15:56:12;20.50;99.90
19880;DHT22;10102;50.828;4.416;2022-10-16T15:58:38;20.60;99.90
19880;DHT22;10102;50.828;4.416;2022-10-16T16:01:05;20.50;99.90
19880;DHT22;10102;50.828;4.416;2022-10-16T16:03:31;20.40;99.90
19880;DHT22;10102;50.828;4.416;2022-10-16T16:05:57;20.40;99.90
19880;DHT22;10102;50.828;4.416;2022-10-16T16:08:23;20.10;99.90
19880;DHT22;10102;50.828;4.416;2022-10-16T16:10:58;20.10;99.90
19880;DHT22;10102;50.828;4.416;2022-10-16T16:13:24;19.90;99.90
19880;DHT22;10102;50.828;4.416;2022-10-16T16:15:50;19.90;99.90
19880;DHT22;10102;50.828;4.416;2022-10-16T16:18:15;20.00;99.90
19880;DHT22;10102;50.828;4.416;2022-10-16T16:20:41;20.00;99.90
19880;DHT22;10102;50.828;4.416;2022-10-16T16:23:06;19.90;99.90
19880;DHT22;10102;50.828;4.416;2022-10-16T16:25:32;19.70;99.90
19880;DHT22;10102;50.828;4.416;2022-10-16T16:27:58;19.80;99.90
19880;DHT22;10102;50.828;4.416;2022-10-16T16:30:23;19.70;99.90
19880;DHT22;10102;50.828;4.416;2022-10-16T16:32:49;19.80;99.90
19880;DHT22;10102;50.828;4.416;2022-10-16T16:35:15;19.60;99.90
19880;DHT22;10102;50.828;4.416;2022-10-16T16:37:40;19.60;99.90
19880;DHT22;10102;50.828;4.416;2022-10-16T16:40:06;19.50;99.90
19880;DHT22;10102;50.828;4.416;2022-10-16T16:42:32;19.40;99.90
19880;DHT22;10102;50.828;4.416;2022-10-16T16:44:57;19.30;99.90
19880;DHT22;10102;50.828;4.416;2022-10-16T16:47:23;19.30;99.90
19880;DHT22;10102;50.828;4.416;2022-10-16T16:49:49;19.10;99.90
19880;DHT22;10102;50.828;4.416;2022-10-16T16:52:15;19.30;99.90
19880;DHT22;10102;50.828;4.416;2022-10-16T16:54:41;19.20;99.90
19880;DHT22;10102;50.828;4.416;2022-10-16T16:57:06;19.30;99.90
19880;DHT22;10102;50.828;4.416;2022-10-16T16:59:32;19.10;99.90
19880;DHT22;10102;50.828;4.416;2022-10-16T17:02:01;19.10;99.90
19880;DHT22;10102;50.828;4.416;2022-10-16T17:04:28;19.10;99.90
19880;DHT22;10102;50.828;4.416;2022-10-16T17:06:54;18.90;99.90
19880;DHT22;10102;50.828;4.416;2022-10-16T17:09:20;18.80;99.90
19880;DHT22;10102;50.828;4.416;2022-10-16T17:11:47;19.00;99.90
19880;DHT22;10102;50.828;4.416;2022-10-16T17:14:14;18.70;99.90
19880;DHT22;10102;50.828;4.416;2022-10-16T17:16:40;18.90;99.90
19880;DHT22;10102;50.828;4.416;2022-10-16T17:19:12;19.00;99.90
19880;DHT22;10102;50.828;4.416;2022-10-16T17:21:38;18.90;99.90
19880;DHT22;10102;50.828;4.416;2022-10-16T17:24:04;18.90;99.90
19880;DHT22;10102;50.828;4.416;2022-10-16T17:26:31;18.80;99.90
19880;DHT22;10102;50.828;4.416;2022-10-16T17:28:59;18.90;99.90
19880;DHT22;10102;50.828;4.416;2022-10-16T17:31:27;18.80;99.90
19880;DHT22;10102;50.828;4.416;2022-10-16T17:33:53;18.70;99.90
19880;DHT22;10102;50.828;4.416;2022-10-16T17:36:20;18.80;99.90
19880;DHT22;10102;50.828;4.416;2022-10-16T17:38:46;18.70;99.90
19880;DHT22;10102;50.828;4.416;2022-10-16T17:41:23;18.80;99.90
19880;DHT22;10102;50.828;4.416;2022-10-16T17:43:49;18.50;99.90
19880;DHT22;10102;50.828;4.416;2022-10-16T17:46:18;18.50;99.90
19880;DHT22;10102;50.828;4.416;2022-10-16T17:48:47;18.60;99.90
19880;DHT22;10102;50.828;4.416;2022-10-16T17:51:15;18.60;99.90
19880;DHT22;10102;50.828;4.416;2022-10-16T17:53:40;18.60;99.90
19880;DHT22;10102;50.828;4.416;2022-10-16T17:56:09;18.60;99.90
19880;DHT22;10102;50.828;4.416;2022-10-16T17:58:35;18.50;99.90
19880;DHT22;10102;50.828;4.416;2022-10-16T18:01:01;18.60;99.90
19880;DHT22;10102;50.828;4.416;2022-10-16T18:03:36;18.60;99.90
19880;DHT22;10102;50.828;4.416;2022-10-16T18:06:01;18.40;99.90
19880;DHT22;10102;50.828;4.416;2022-10-16T18:08:29;18.50;99.90
19880;DHT22;10102;50.828;4.416;2022-10-16T18:10:55;18.60;99.90
19880;DHT22;10102;50.828;4.416;2022-10-16T18:13:21;18.40;99.90
19880;DHT22;10102;50.828;4.416;2022-10-16T18:15:46;18.30;99.90
19880;DHT22;10102;50.828;4.416;2022-10-16T18:18:12;18.30;99.90